Clearmont, Missouri
Current Conditions -  °F | °C
As of 2:35 PM on Saturday 20 Dec 2014 (Local Time) from KICL Reporting Station
Haze Haze  
Wind Chill: 27°   Ceiling: 700
Heat Index: 34°   Visibility: 5mi
Dew Point: 34°   Wind: 8mph
Humidity: 100%   Direction: 180°S
Pressure: 30.1"   Gusts: NA
Location:  40.51°N, 95.03°W
Report Text: KICL 202035Z AUTO 18007KT 5SM BR OVC007 01/01 A3010 RMK AO2
Loading
Personal Weather Stations






























Interactive Weather Map New forecast layout! Learn more

10-Day Weather Forecast

Advertisements
Track Severe Weather on mobile